sensor_id;sensor_type;location;lat;lon;timestamp;temperature;humidity
8896;DHT22;4484;48.928;10.066;2022-08-14T00:01:44;14.80;87.80
8896;DHT22;4484;48.928;10.066;2022-08-14T00:04:22;14.70;88.50
8896;DHT22;4484;48.928;10.066;2022-08-14T00:07:03;14.70;88.90
8896;DHT22;4484;48.928;10.066;2022-08-14T00:09:34;14.60;89.60
8896;DHT22;4484;48.928;10.066;2022-08-14T00:12:21;14.60;89.70
8896;DHT22;4484;48.928;10.066;2022-08-14T00:14:51;14.50;89.70
8896;DHT22;4484;48.928;10.066;2022-08-14T00:17:21;14.40;90.20
8896;DHT22;4484;48.928;10.066;2022-08-14T00:19:49;14.40;90.60
8896;DHT22;4484;48.928;10.066;2022-08-14T00:22:18;14.40;90.80
8896;DHT22;4484;48.928;10.066;2022-08-14T00:25:06;14.40;91.00
8896;DHT22;4484;48.928;10.066;2022-08-14T00:27:33;14.30;91.10
8896;DHT22;4484;48.928;10.066;2022-08-14T00:30:08;14.30;91.50
8896;DHT22;4484;48.928;10.066;2022-08-14T00:32:37;14.30;91.80
8896;DHT22;4484;48.928;10.066;2022-08-14T00:35:22;14.20;92.00
8896;DHT22;4484;48.928;10.066;2022-08-14T00:38:09;14.20;92.30
8896;DHT22;4484;48.928;10.066;2022-08-14T00:40:37;14.10;92.40
8896;DHT22;4484;48.928;10.066;2022-08-14T00:43:04;14.10;92.20
8896;DHT22;4484;48.928;10.066;2022-08-14T00:45:32;14.10;92.90
8896;DHT22;4484;48.928;10.066;2022-08-14T00:47:59;14.10;93.10
8896;DHT22;4484;48.928;10.066;2022-08-14T00:50:27;14.10;93.60
8896;DHT22;4484;48.928;10.066;2022-08-14T00:52:58;14.10;94.30
8896;DHT22;4484;48.928;10.066;2022-08-14T00:55:27;14.00;95.00
8896;DHT22;4484;48.928;10.066;2022-08-14T00:57:57;14.00;95.80
8896;DHT22;4484;48.928;10.066;2022-08-14T01:00:44;14.00;96.10
8896;DHT22;4484;48.928;10.066;2022-08-14T01:03:18;14.00;96.50
8896;DHT22;4484;48.928;10.066;2022-08-14T01:05:49;14.00;97.30
8896;DHT22;4484;48.928;10.066;2022-08-14T01:08:24;13.90;98.40
8896;DHT22;4484;48.928;10.066;2022-08-14T01:11:12;13.90;98.60
8896;DHT22;4484;48.928;10.066;2022-08-14T01:13:46;13.90;99.70
8896;DHT22;4484;48.928;10.066;2022-08-14T01:16:22;13.80;99.90
8896;DHT22;4484;48.928;10.066;2022-08-14T01:18:53;13.80;99.90
8896;DHT22;4484;48.928;10.066;2022-08-14T01:21:39;13.80;99.90
8896;DHT22;4484;48.928;10.066;2022-08-14T01:24:19;13.70;99.90
8896;DHT22;4484;48.928;10.066;2022-08-14T01:27:01;13.70;99.90
8896;DHT22;4484;48.928;10.066;2022-08-14T01:29:32;13.70;99.90
8896;DHT22;4484;48.928;10.066;2022-08-14T01:32:23;13.70;99.90
8896;DHT22;4484;48.928;10.066;2022-08-14T01:34:51;13.70;99.90
8896;DHT22;4484;48.928;10.066;2022-08-14T01:37:46;13.70;99.90
8896;DHT22;4484;48.928;10.066;2022-08-14T01:40:27;13.70;99.90
8896;DHT22;4484;48.928;10.066;2022-08-14T01:43:09;13.70;99.90
8896;DHT22;4484;48.928;10.066;2022-08-14T01:45:42;13.70;99.90
8896;DHT22;4484;48.928;10.066;2022-08-14T01:48:16;13.70;99.90
8896;DHT22;4484;48.928;10.066;2022-08-14T01:50:46;13.70;99.90
8896;DHT22;4484;48.928;10.066;2022-08-14T01:53:14;13.70;99.90
8896;DHT22;4484;48.928;10.066;2022-08-14T01:55:41;13.70;99.90
8896;DHT22;4484;48.928;10.066;2022-08-14T01:58:09;13.70;99.90
8896;DHT22;4484;48.928;10.066;2022-08-14T02:00:50;13.60;99.90
8896;DHT22;4484;48.928;10.066;2022-08-14T02:03:31;13.70;99.90
8896;DHT22;4484;48.928;10.066;2022-08-14T02:06:06;13.70;99.90
8896;DHT22;4484;48.928;10.066;2022-08-14T02:08:53;13.60;99.90
8896;DHT22;4484;48.928;10.066;2022-08-14T02:11:23;13.50;99.90
8896;DHT22;4484;48.928;10.066;2022-08-14T02:13:58;13.60;99.90
8896;DHT22;4484;48.928;10.066;2022-08-14T02:16:45;13.60;99.90
8896;DHT22;4484;48.928;10.066;2022-08-14T02:19:22;13.60;99.90
8896;DHT22;4484;48.928;10.066;2022-08-14T02:21:52;13.60;99.90
8896;DHT22;4484;48.928;10.066;2022-08-14T02:24:22;13.60;99.90
8896;DHT22;4484;48.928;10.066;2022-08-14T02:27:08;13.60;99.90
8896;DHT22;4484;48.928;10.066;2022-08-14T02:29:56;13.60;99.90
8896;DHT22;4484;48.928;10.066;2022-08-14T02:32:27;13.60;99.90
8896;DHT22;4484;48.928;10.066;2022-08-14T02:35:04;13.60;99.90
8896;DHT22;4484;48.928;10.066;2022-08-14T02:37:39;13.50;99.90
8896;DHT22;4484;48.928;10.066;2022-08-14T02:40:14;13.50;99.90
8896;DHT22;4484;48.928;10.066;2022-08-14T02:42:42;13.50;99.90
8896;DHT22;4484;48.928;10.066;2022-08-14T02:45:21;13.50;99.90
8896;DHT22;4484;48.928;10.066;2022-08-14T02:47:48;13.50;99.90
8896;DHT22;4484;48.928;10.066;2022-08-14T02:50:23;13.50;99.90
8896;DHT22;4484;48.928;10.066;2022-08-14T02:52:53;13.50;99.90
8896;DHT22;4484;48.928;10.066;2022-08-14T02:55:29;13.50;99.90
8896;DHT22;4484;48.928;10.066;2022-08-14T02:57:56;13.50;99.90
8896;DHT22;4484;48.928;10.066;2022-08-14T03:00:30;13.50;99.90
8896;DHT22;4484;48.928;10.066;2022-08-14T03:02:58;13.50;99.90
8896;DHT22;4484;48.928;10.066;2022-08-14T03:05:33;13.50;99.90
8896;DHT22;4484;48.928;10.066;2022-08-14T03:08:04;13.40;99.90
8896;DHT22;4484;48.928;10.066;2022-08-14T03:10:34;13.30;99.90
8896;DHT22;4484;48.928;10.066;2022-08-14T03:13:00;13.30;99.90
8896;DHT22;4484;48.928;10.066;2022-08-14T03:15:31;13.30;99.90
8896;DHT22;4484;48.928;10.066;2022-08-14T03:18:23;13.20;99.90
8896;DHT22;4484;48.928;10.066;2022-08-14T03:21:02;13.20;99.90
8896;DHT22;4484;48.928;10.066;2022-08-14T03:23:29;13.20;99.90
8896;DHT22;4484;48.928;10.066;2022-08-14T03:26:03;13.10;99.90
8896;DHT22;4484;48.928;10.066;2022-08-14T03:28:30;13.10;99.90
8896;DHT22;4484;48.928;10.066;2022-08-14T03:30:59;13.10;99.90
8896;DHT22;4484;48.928;10.066;2022-08-14T03:33:27;13.10;99.90
8896;DHT22;4484;48.928;10.066;2022-08-14T03:36:08;13.10;99.90
8896;DHT22;4484;48.928;10.066;2022-08-14T03:38:57;13.00;99.90
8896;DHT22;4484;48.928;10.066;2022-08-14T03:41:45;13.00;99.90
8896;DHT22;4484;48.928;10.066;2022-08-14T03:44:17;13.00;99.90
8896;DHT22;4484;48.928;10.066;2022-08-14T03:47:04;13.00;99.90
8896;DHT22;4484;48.928;10.066;2022-08-14T03:49:34;13.00;99.90
8896;DHT22;4484;48.928;10.066;2022-08-14T03:52:08;13.00;99.90
8896;DHT22;4484;48.928;10.066;2022-08-14T03:54:55;13.00;99.90
8896;DHT22;4484;48.928;10.066;2022-08-14T03:57:22;13.00;99.90
8896;DHT22;4484;48.928;10.066;2022-08-14T03:59:50;13.00;99.90
8896;DHT22;4484;48.928;10.066;2022-08-14T04:02:17;12.90;99.90
8896;DHT22;4484;48.928;10.066;2022-08-14T04:05:08;12.90;99.90
8896;DHT22;4484;48.928;10.066;2022-08-14T04:07:39;12.90;99.90
8896;DHT22;4484;48.928;10.066;2022-08-14T04:10:27;12.90;99.90
8896;DHT22;4484;48.928;10.066;2022-08-14T04:13:01;12.90;99.90
8896;DHT22;4484;48.928;10.066;2022-08-14T04:15:31;12.90;99.90
8896;DHT22;4484;48.928;10.066;2022-08-14T04:18:18;12.90;99.90
8896;DHT22;4484;48.928;10.066;2022-08-14T04:20:44;12.80;99.90
8896;DHT22;4484;48.928;10.066;2022-08-14T04:23:21;12.80;99.90
8896;DHT22;4484;48.928;10.066;2022-08-14T04:26:10;12.80;99.90
8896;DHT22;4484;48.928;10.066;2022-08-14T04:28:41;12.80;99.90
8896;DHT22;4484;48.928;10.066;2022-08-14T04:31:28;12.80;99.90
8896;DHT22;4484;48.928;10.066;2022-08-14T04:34:15;12.80;99.90
8896;DHT22;4484;48.928;10.066;2022-08-14T04:36:54;12.80;99.90
8896;DHT22;4484;48.928;10.066;2022-08-14T04:39:51;12.80;99.90
8896;DHT22;4484;48.928;10.066;2022-08-14T04:42:37;12.80;99.90
8896;DHT22;4484;48.928;10.066;2022-08-14T04:45:24;12.90;99.90
8896;DHT22;4484;48.928;10.066;2022-08-14T04:47:55;12.90;99.90
8896;DHT22;4484;48.928;10.066;2022-08-14T04:51:01;12.90;99.90
8896;DHT22;4484;48.928;10.066;2022-08-14T04:53:30;12.90;99.90
8896;DHT22;4484;48.928;10.066;2022-08-14T04:56:03;12.90;99.90
8896;DHT22;4484;48.928;10.066;2022-08-14T04:58:54;13.00;99.90
8896;DHT22;4484;48.928;10.066;2022-08-14T05:01:25;13.00;99.90
8896;DHT22;4484;48.928;10.066;2022-08-14T05:03:52;13.00;99.90
8896;DHT22;4484;48.928;10.066;2022-08-14T05:06:20;13.00;99.90
8896;DHT22;4484;48.928;10.066;2022-08-14T05:09:06;13.10;99.90
8896;DHT22;4484;48.928;10.066;2022-08-14T05:11:42;13.10;99.90
8896;DHT22;4484;48.928;10.066;2022-08-14T05:14:10;13.20;99.90
8896;DHT22;4484;48.928;10.066;2022-08-14T05:16:57;13.20;99.90
8896;DHT22;4484;48.928;10.066;2022-08-14T05:19:27;13.30;99.90
8896;DHT22;4484;48.928;10.066;2022-08-14T05:21:57;13.40;99.90
8896;DHT22;4484;48.928;10.066;2022-08-14T05:24:45;13.50;99.90
8896;DHT22;4484;48.928;10.066;2022-08-14T05:27:15;13.60;99.90
8896;DHT22;4484;48.928;10.066;2022-08-14T05:29:53;13.70;99.90
8896;DHT22;4484;48.928;10.066;2022-08-14T05:32:24;13.80;99.90
8896;DHT22;4484;48.928;10.066;2022-08-14T05:34:55;13.90;99.90
8896;DHT22;4484;48.928;10.066;2022-08-14T05:37:25;14.10;99.90
8896;DHT22;4484;48.928;10.066;2022-08-14T05:39:53;14.20;99.90
8896;DHT22;4484;48.928;10.066;2022-08-14T05:42:21;14.30;99.90
8896;DHT22;4484;48.928;10.066;2022-08-14T05:44:55;14.30;99.90
8896;DHT22;4484;48.928;10.066;2022-08-14T05:47:22;14.40;99.90
8896;DHT22;4484;48.928;10.066;2022-08-14T05:49:56;14.60;99.90
8896;DHT22;4484;48.928;10.066;2022-08-14T05:52:23;14.70;99.90
8896;DHT22;4484;48.928;10.066;2022-08-14T05:55:06;14.80;99.90
8896;DHT22;4484;48.928;10.066;2022-08-14T05:57:34;14.90;99.90
8896;DHT22;4484;48.928;10.066;2022-08-14T06:00:11;15.00;99.90
8896;DHT22;4484;48.928;10.066;2022-08-14T06:02:50;15.20;99.90
8896;DHT22;4484;48.928;10.066;2022-08-14T06:05:18;15.40;99.90
8896;DHT22;4484;48.928;10.066;2022-08-14T06:07:49;15.60;99.90
8896;DHT22;4484;48.928;10.066;2022-08-14T06:10:16;15.90;99.90
8896;DHT22;4484;48.928;10.066;2022-08-14T06:12:44;16.10;99.90
8896;DHT22;4484;48.928;10.066;2022-08-14T06:15:22;16.30;99.90
8896;DHT22;4484;48.928;10.066;2022-08-14T06:17:55;16.60;99.90
8896;DHT22;4484;48.928;10.066;2022-08-14T06:20:25;16.90;99.90
8896;DHT22;4484;48.928;10.066;2022-08-14T06:22:54;17.20;99.90
8896;DHT22;4484;48.928;10.066;2022-08-14T06:25:22;17.60;99.90
8896;DHT22;4484;48.928;10.066;2022-08-14T06:27:51;17.90;99.90
8896;DHT22;4484;48.928;10.066;2022-08-14T06:30:20;18.30;99.90
8896;DHT22;4484;48.928;10.066;2022-08-14T06:32:55;18.70;99.90
8896;DHT22;4484;48.928;10.066;2022-08-14T06:35:23;19.10;99.90
8896;DHT22;4484;48.928;10.066;2022-08-14T06:37:57;19.50;99.90
8896;DHT22;4484;48.928;10.066;2022-08-14T06:40:27;20.00;99.90
8896;DHT22;4484;48.928;10.066;2022-08-14T06:43:03;20.30;99.90
8896;DHT22;4484;48.928;10.066;2022-08-14T06:45:35;20.60;99.90
8896;DHT22;4484;48.928;10.066;2022-08-14T06:48:11;20.90;99.90
8896;DHT22;4484;48.928;10.066;2022-08-14T06:50:43;21.20;99.90
8896;DHT22;4484;48.928;10.066;2022-08-14T06:53:12;21.60;99.90
8896;DHT22;4484;48.928;10.066;2022-08-14T06:55:41;22.00;99.90
8896;DHT22;4484;48.928;10.066;2022-08-14T06:58:26;22.40;99.90
8896;DHT22;4484;48.928;10.066;2022-08-14T07:00:58;22.70;99.90
8896;DHT22;4484;48.928;10.066;2022-08-14T07:03:50;22.80;99.90
8896;DHT22;4484;48.928;10.066;2022-08-14T07:06:48;22.90;99.90
8896;DHT22;4484;48.928;10.066;2022-08-14T07:09:16;23.10;99.70
8896;DHT22;4484;48.928;10.066;2022-08-14T07:11:50;23.40;99.70
8896;DHT22;4484;48.928;10.066;2022-08-14T07:14:17;23.70;98.20
8896;DHT22;4484;48.928;10.066;2022-08-14T07:16:47;24.10;97.80
8896;DHT22;4484;48.928;10.066;2022-08-14T07:19:16;24.30;95.40
8896;DHT22;4484;48.928;10.066;2022-08-14T07:21:47;24.40;94.50
8896;DHT22;4484;48.928;10.066;2022-08-14T07:24:14;24.70;95.00
8896;DHT22;4484;48.928;10.066;2022-08-14T07:26:52;25.10;93.10
8896;DHT22;4484;48.928;10.066;2022-08-14T07:29:19;25.40;91.60
8896;DHT22;4484;48.928;10.066;2022-08-14T07:31:52;25.60;91.40
8896;DHT22;4484;48.928;10.066;2022-08-14T07:34:19;25.80;88.80
8896;DHT22;4484;48.928;10.066;2022-08-14T07:37:06;25.70;87.40
8896;DHT22;4484;48.928;10.066;2022-08-14T07:39:35;25.70;88.90
8896;DHT22;4484;48.928;10.066;2022-08-14T07:42:04;25.90;86.30
8896;DHT22;4484;48.928;10.066;2022-08-14T07:44:33;26.10;86.20
8896;DHT22;4484;48.928;10.066;2022-08-14T07:47:14;26.60;83.60
8896;DHT22;4484;48.928;10.066;2022-08-14T07:50:07;26.70;81.60
8896;DHT22;4484;48.928;10.066;2022-08-14T07:52:43;26.80;80.30
8896;DHT22;4484;48.928;10.066;2022-08-14T07:55:13;27.20;79.00
8896;DHT22;4484;48.928;10.066;2022-08-14T07:57:47;27.50;76.50
8896;DHT22;4484;48.928;10.066;2022-08-14T08:00:20;27.50;74.30
8896;DHT22;4484;48.928;10.066;2022-08-14T08:02:57;27.60;75.10
8896;DHT22;4484;48.928;10.066;2022-08-14T08:05:26;28.20;73.60
8896;DHT22;4484;48.928;10.066;2022-08-14T08:07:53;28.30;73.60
8896;DHT22;4484;48.928;10.066;2022-08-14T08:10:23;28.40;72.60
8896;DHT22;4484;48.928;10.066;2022-08-14T08:13:26;28.70;71.90
8896;DHT22;4484;48.928;10.066;2022-08-14T08:15:56;29.00;67.30
8896;DHT22;4484;48.928;10.066;2022-08-14T08:18:24;29.20;66.40
8896;DHT22;4484;48.928;10.066;2022-08-14T08:20:55;29.70;66.90
8896;DHT22;4484;48.928;10.066;2022-08-14T08:23:26;30.10;63.70
8896;DHT22;4484;48.928;10.066;2022-08-14T08:26:09;30.30;63.00
8896;DHT22;4484;48.928;10.066;2022-08-14T08:28:36;30.60;60.30
8896;DHT22;4484;48.928;10.066;2022-08-14T08:31:07;30.90;60.20
8896;DHT22;4484;48.928;10.066;2022-08-14T08:33:34;31.20;58.60
8896;DHT22;4484;48.928;10.066;2022-08-14T08:36:08;31.50;57.80
8896;DHT22;4484;48.928;10.066;2022-08-14T08:38:38;31.80;54.60
8896;DHT22;4484;48.928;10.066;2022-08-14T08:41:25;31.40;54.90
8896;DHT22;4484;48.928;10.066;2022-08-14T08:44:04;31.70;56.80
8896;DHT22;4484;48.928;10.066;2022-08-14T08:46:56;32.20;54.70
8896;DHT22;4484;48.928;10.066;2022-08-14T08:49:34;32.20;52.20
8896;DHT22;4484;48.928;10.066;2022-08-14T08:52:14;32.30;52.40
8896;DHT22;4484;48.928;10.066;2022-08-14T08:54:58;32.20;52.20
8896;DHT22;4484;48.928;10.066;2022-08-14T08:57:32;32.30;52.30
8896;DHT22;4484;48.928;10.066;2022-08-14T09:00:00;32.20;51.30
8896;DHT22;4484;48.928;10.066;2022-08-14T09:02:27;31.80;50.30
8896;DHT22;4484;48.928;10.066;2022-08-14T09:05:01;31.80;50.70
8896;DHT22;4484;48.928;10.066;2022-08-14T09:07:29;31.60;50.60
8896;DHT22;4484;48.928;10.066;2022-08-14T09:09:57;31.70;50.80
8896;DHT22;4484;48.928;10.066;2022-08-14T09:12:27;31.80;50.70
8896;DHT22;4484;48.928;10.066;2022-08-14T09:15:04;31.90;50.50
8896;DHT22;4484;48.928;10.066;2022-08-14T09:17:38;32.20;49.70
8896;DHT22;4484;48.928;10.066;2022-08-14T09:20:08;32.50;49.80
8896;DHT22;4484;48.928;10.066;2022-08-14T09:22:39;32.60;48.80
8896;DHT22;4484;48.928;10.066;2022-08-14T09:25:14;33.00;49.90
8896;DHT22;4484;48.928;10.066;2022-08-14T09:27:41;33.60;48.40
8896;DHT22;4484;48.928;10.066;2022-08-14T09:30:09;33.80;47.10
8896;DHT22;4484;48.928;10.066;2022-08-14T09:36:18;34.00;46.60
8896;DHT22;4484;48.928;10.066;2022-08-14T09:45:16;34.50;47.70
8896;DHT22;4484;48.928;10.066;2022-08-14T09:47:52;34.40;45.60
8896;DHT22;4484;48.928;10.066;2022-08-14T09:50:31;34.50;45.90
8896;DHT22;4484;48.928;10.066;2022-08-14T09:53:10;34.80;46.20
8896;DHT22;4484;48.928;10.066;2022-08-14T09:55:44;34.80;46.50
8896;DHT22;4484;48.928;10.066;2022-08-14T09:58:38;35.10;46.60
8896;DHT22;4484;48.928;10.066;2022-08-14T10:01:12;35.30;45.30
8896;DHT22;4484;48.928;10.066;2022-08-14T10:03:57;35.30;45.20
8896;DHT22;4484;48.928;10.066;2022-08-14T10:06:27;35.20;45.00
8896;DHT22;4484;48.928;10.066;2022-08-14T10:09:03;35.40;45.50
8896;DHT22;4484;48.928;10.066;2022-08-14T10:11:39;35.50;45.10
8896;DHT22;4484;48.928;10.066;2022-08-14T10:14:29;35.20;44.70
8896;DHT22;4484;48.928;10.066;2022-08-14T10:17:05;34.50;46.00
8896;DHT22;4484;48.928;10.066;2022-08-14T10:19:34;34.40;46.40
8896;DHT22;4484;48.928;10.066;2022-08-14T10:22:07;34.50;46.50
8896;DHT22;4484;48.928;10.066;2022-08-14T10:24:56;34.30;46.40
8896;DHT22;4484;48.928;10.066;2022-08-14T10:27:26;34.70;47.00
8896;DHT22;4484;48.928;10.066;2022-08-14T10:29:55;35.00;46.10
8896;DHT22;4484;48.928;10.066;2022-08-14T10:32:26;35.10;45.40
8896;DHT22;4484;48.928;10.066;2022-08-14T10:35:08;35.10;46.00
8896;DHT22;4484;48.928;10.066;2022-08-14T10:37:51;34.50;46.10
8896;DHT22;4484;48.928;10.066;2022-08-14T10:40:29;34.20;47.00
8896;DHT22;4484;48.928;10.066;2022-08-14T10:43:21;34.40;47.10
8896;DHT22;4484;48.928;10.066;2022-08-14T10:45:56;34.70;46.50
8896;DHT22;4484;48.928;10.066;2022-08-14T10:48:59;35.10;46.50
8896;DHT22;4484;48.928;10.066;2022-08-14T10:51:31;35.40;45.40
8896;DHT22;4484;48.928;10.066;2022-08-14T10:54:07;35.20;45.30
8896;DHT22;4484;48.928;10.066;2022-08-14T10:56:54;35.40;44.90
8896;DHT22;4484;48.928;10.066;2022-08-14T10:59:22;35.20;45.20
8896;DHT22;4484;48.928;10.066;2022-08-14T11:02:02;35.40;45.00
8896;DHT22;4484;48.928;10.066;2022-08-14T11:04:28;35.50;44.40
8896;DHT22;4484;48.928;10.066;2022-08-14T11:06:57;35.80;44.60
8896;DHT22;4484;48.928;10.066;2022-08-14T11:09:23;36.10;44.80
8896;DHT22;4484;48.928;10.066;2022-08-14T11:11:57;35.90;43.90
8896;DHT22;4484;48.928;10.066;2022-08-14T11:14:55;35.60;44.20
8896;DHT22;4484;48.928;10.066;2022-08-14T11:17:30;35.40;43.80
8896;DHT22;4484;48.928;10.066;2022-08-14T11:20:01;35.10;44.20
8896;DHT22;4484;48.928;10.066;2022-08-14T11:22:30;35.10;44.70
8896;DHT22;4484;48.928;10.066;2022-08-14T11:25:17;35.70;45.00
8896;DHT22;4484;48.928;10.066;2022-08-14T11:27:48;36.50;43.40
8896;DHT22;4484;48.928;10.066;2022-08-14T11:30:19;36.60;42.10
8896;DHT22;4484;48.928;10.066;2022-08-14T11:33:06;36.20;42.50
8896;DHT22;4484;48.928;10.066;2022-08-14T11:35:35;36.20;42.80
8896;DHT22;4484;48.928;10.066;2022-08-14T11:38:14;36.10;42.80
8896;DHT22;4484;48.928;10.066;2022-08-14T11:40:43;35.70;42.80
8896;DHT22;4484;48.928;10.066;2022-08-14T11:43:13;35.70;42.50
8896;DHT22;4484;48.928;10.066;2022-08-14T11:45:44;35.50;42.60
8896;DHT22;4484;48.928;10.066;2022-08-14T11:48:21;35.90;42.90
8896;DHT22;4484;48.928;10.066;2022-08-14T11:51:17;36.00;42.10
8896;DHT22;4484;48.928;10.066;2022-08-14T11:53:55;35.90;42.00
8896;DHT22;4484;48.928;10.066;2022-08-14T11:56:23;36.20;42.10
8896;DHT22;4484;48.928;10.066;2022-08-14T11:58:57;36.70;41.20
8896;DHT22;4484;48.928;10.066;2022-08-14T12:01:27;36.90;41.10
8896;DHT22;4484;48.928;10.066;2022-08-14T12:03:54;36.90;40.40
8896;DHT22;4484;48.928;10.066;2022-08-14T12:06:25;36.70;40.80
8896;DHT22;4484;48.928;10.066;2022-08-14T12:09:02;36.40;40.90
8896;DHT22;4484;48.928;10.066;2022-08-14T12:11:38;36.10;41.10
8896;DHT22;4484;48.928;10.066;2022-08-14T12:14:12;35.80;41.40
8896;DHT22;4484;48.928;10.066;2022-08-14T12:17:07;36.20;42.30
8896;DHT22;4484;48.928;10.066;2022-08-14T12:19:43;36.40;41.10
8896;DHT22;4484;48.928;10.066;2022-08-14T12:22:18;36.80;40.50
8896;DHT22;4484;48.928;10.066;2022-08-14T12:24:56;37.10;39.80
8896;DHT22;4484;48.928;10.066;2022-08-14T12:27:37;37.00;39.10
8896;DHT22;4484;48.928;10.066;2022-08-14T12:30:13;36.70;38.70
8896;DHT22;4484;48.928;10.066;2022-08-14T12:32:46;36.70;39.60
8896;DHT22;4484;48.928;10.066;2022-08-14T12:35:13;37.00;39.90
8896;DHT22;4484;48.928;10.066;2022-08-14T12:37:48;36.90;40.40
8896;DHT22;4484;48.928;10.066;2022-08-14T12:40:17;37.10;39.30
8896;DHT22;4484;48.928;10.066;2022-08-14T12:42:49;37.20;39.40
8896;DHT22;4484;48.928;10.066;2022-08-14T12:45:30;36.60;39.50
8896;DHT22;4484;48.928;10.066;2022-08-14T12:48:04;36.30;40.60
8896;DHT22;4484;48.928;10.066;2022-08-14T12:50:51;36.20;39.70
8896;DHT22;4484;48.928;10.066;2022-08-14T12:53:19;36.00;39.90
8896;DHT22;4484;48.928;10.066;2022-08-14T12:55:58;35.60;39.80
8896;DHT22;4484;48.928;10.066;2022-08-14T12:58:50;35.90;40.90
8896;DHT22;4484;48.928;10.066;2022-08-14T13:01:27;36.30;40.10
8896;DHT22;4484;48.928;10.066;2022-08-14T13:04:17;37.00;40.50
8896;DHT22;4484;48.928;10.066;2022-08-14T13:06:46;37.40;39.00
8896;DHT22;4484;48.928;10.066;2022-08-14T13:09:18;37.40;38.80
8896;DHT22;4484;48.928;10.066;2022-08-14T13:11:47;37.00;39.40
8896;DHT22;4484;48.928;10.066;2022-08-14T13:14:37;37.00;40.00
8896;DHT22;4484;48.928;10.066;2022-08-14T13:17:05;37.10;39.60
8896;DHT22;4484;48.928;10.066;2022-08-14T13:19:38;37.10;39.50
8896;DHT22;4484;48.928;10.066;2022-08-14T13:22:07;37.00;39.00
8896;DHT22;4484;48.928;10.066;2022-08-14T13:24:54;36.70;39.40
8896;DHT22;4484;48.928;10.066;2022-08-14T13:27:22;36.70;39.50
8896;DHT22;4484;48.928;10.066;2022-08-14T13:29:51;36.90;39.50
8896;DHT22;4484;48.928;10.066;2022-08-14T13:32:19;36.70;39.00
8896;DHT22;4484;48.928;10.066;2022-08-14T13:34:47;36.50;39.90
8896;DHT22;4484;48.928;10.066;2022-08-14T13:37:16;36.40;40.10
8896;DHT22;4484;48.928;10.066;2022-08-14T13:39:48;36.10;39.30
8896;DHT22;4484;48.928;10.066;2022-08-14T13:42:24;35.80;40.60
8896;DHT22;4484;48.928;10.066;2022-08-14T13:45:02;35.80;40.10
8896;DHT22;4484;48.928;10.066;2022-08-14T13:47:30;36.30;40.90
8896;DHT22;4484;48.928;10.066;2022-08-14T13:50:00;36.40;39.40
8896;DHT22;4484;48.928;10.066;2022-08-14T13:52:40;36.30;39.20
8896;DHT22;4484;48.928;10.066;2022-08-14T13:55:27;36.20;39.20
8896;DHT22;4484;48.928;10.066;2022-08-14T13:58:00;36.00;39.50
8896;DHT22;4484;48.928;10.066;2022-08-14T14:00:34;36.00;39.30
8896;DHT22;4484;48.928;10.066;2022-08-14T14:03:22;35.80;39.40
8896;DHT22;4484;48.928;10.066;2022-08-14T14:05:53;35.90;39.80
8896;DHT22;4484;48.928;10.066;2022-08-14T14:08:23;36.10;39.90
8896;DHT22;4484;48.928;10.066;2022-08-14T14:11:10;36.30;38.90
8896;DHT22;4484;48.928;10.066;2022-08-14T14:13:43;36.40;38.40
8896;DHT22;4484;48.928;10.066;2022-08-14T14:16:12;36.10;37.90
8896;DHT22;4484;48.928;10.066;2022-08-14T14:18:51;35.80;37.80
8896;DHT22;4484;48.928;10.066;2022-08-14T14:21:24;35.70;38.70
8896;DHT22;4484;48.928;10.066;2022-08-14T14:23:54;35.70;39.10
8896;DHT22;4484;48.928;10.066;2022-08-14T14:26:23;35.50;39.40
8896;DHT22;4484;48.928;10.066;2022-08-14T14:28:55;35.40;39.50
8896;DHT22;4484;48.928;10.066;2022-08-14T14:31:24;35.40;39.10
8896;DHT22;4484;48.928;10.066;2022-08-14T14:33:58;35.20;39.40
8896;DHT22;4484;48.928;10.066;2022-08-14T14:36:27;35.20;39.50
8896;DHT22;4484;48.928;10.066;2022-08-14T14:38:59;34.80;38.70
8896;DHT22;4484;48.928;10.066;2022-08-14T14:41:31;34.40;39.50
8896;DHT22;4484;48.928;10.066;2022-08-14T14:44:09;34.70;41.00
8896;DHT22;4484;48.928;10.066;2022-08-14T14:46:42;35.10;40.20
8896;DHT22;4484;48.928;10.066;2022-08-14T14:49:17;35.50;40.10
8896;DHT22;4484;48.928;10.066;2022-08-14T14:51:47;35.50;39.40
8896;DHT22;4484;48.928;10.066;2022-08-14T14:54:19;35.50;39.60
8896;DHT22;4484;48.928;10.066;2022-08-14T14:57:03;35.50;39.80
8896;DHT22;4484;48.928;10.066;2022-08-14T14:59:36;35.50;39.60
8896;DHT22;4484;48.928;10.066;2022-08-14T15:02:05;35.60;40.30
8896;DHT22;4484;48.928;10.066;2022-08-14T15:04:36;35.70;39.30
8896;DHT22;4484;48.928;10.066;2022-08-14T15:07:05;35.50;39.20
8896;DHT22;4484;48.928;10.066;2022-08-14T15:09:34;35.10;39.20
8896;DHT22;4484;48.928;10.066;2022-08-14T15:12:02;34.70;39.40
8896;DHT22;4484;48.928;10.066;2022-08-14T15:14:49;34.60;40.20
8896;DHT22;4484;48.928;10.066;2022-08-14T15:17:23;34.60;40.00
8896;DHT22;4484;48.928;10.066;2022-08-14T15:19:54;34.40;39.60
8896;DHT22;4484;48.928;10.066;2022-08-14T15:22:22;34.40;40.20
8896;DHT22;4484;48.928;10.066;2022-08-14T15:24:51;34.20;40.20
8896;DHT22;4484;48.928;10.066;2022-08-14T15:27:17;34.00;40.80
8896;DHT22;4484;48.928;10.066;2022-08-14T15:29:52;33.80;40.70
8896;DHT22;4484;48.928;10.066;2022-08-14T15:32:19;33.50;41.40
8896;DHT22;4484;48.928;10.066;2022-08-14T15:34:49;33.30;41.80
8896;DHT22;4484;48.928;10.066;2022-08-14T15:37:19;33.10;41.80
8896;DHT22;4484;48.928;10.066;2022-08-14T15:39:49;33.10;42.40
8896;DHT22;4484;48.928;10.066;2022-08-14T15:42:19;33.00;42.60
8896;DHT22;4484;48.928;10.066;2022-08-14T15:44:48;33.00;43.10
8896;DHT22;4484;48.928;10.066;2022-08-14T15:47:25;33.00;42.90
8896;DHT22;4484;48.928;10.066;2022-08-14T15:49:56;33.10;43.00
8896;DHT22;4484;48.928;10.066;2022-08-14T15:52:28;33.10;42.40
8896;DHT22;4484;48.928;10.066;2022-08-14T15:55:06;33.10;42.00
8896;DHT22;4484;48.928;10.066;2022-08-14T15:57:34;33.00;42.80
8896;DHT22;4484;48.928;10.066;2022-08-14T16:00:02;32.90;43.40
8896;DHT22;4484;48.928;10.066;2022-08-14T16:03:07;32.80;42.60
8896;DHT22;4484;48.928;10.066;2022-08-14T16:05:40;32.50;42.90
8896;DHT22;4484;48.928;10.066;2022-08-14T16:08:08;32.20;43.10
8896;DHT22;4484;48.928;10.066;2022-08-14T16:10:55;32.00;43.10
8896;DHT22;4484;48.928;10.066;2022-08-14T16:13:22;31.80;43.30
8896;DHT22;4484;48.928;10.066;2022-08-14T16:16:22;31.60;43.90
8896;DHT22;4484;48.928;10.066;2022-08-14T16:19:09;31.70;44.90
8896;DHT22;4484;48.928;10.066;2022-08-14T16:21:39;31.70;44.30
8896;DHT22;4484;48.928;10.066;2022-08-14T16:24:07;31.60;44.00
8896;DHT22;4484;48.928;10.066;2022-08-14T16:26:56;31.40;44.50
8896;DHT22;4484;48.928;10.066;2022-08-14T16:29:30;31.10;44.80
8896;DHT22;4484;48.928;10.066;2022-08-14T16:32:01;30.90;46.00
8896;DHT22;4484;48.928;10.066;2022-08-14T16:34:49;30.70;46.10
8896;DHT22;4484;48.928;10.066;2022-08-14T16:37:22;30.60;46.00
8896;DHT22;4484;48.928;10.066;2022-08-14T16:39:59;30.40;46.20
8896;DHT22;4484;48.928;10.066;2022-08-14T16:42:28;30.20;46.80
8896;DHT22;4484;48.928;10.066;2022-08-14T16:45:22;30.10;46.70